Time;durP1;ratioP1;P1;durP2;ratioP2;P2;SDS_P1;SDS_P2;PMS_P1;PMS_P2;Temp;Humidity;BMP_temperature;BMP_pressure;BME280_temperature;BME280_humidity;BME280_pressure;Samples;Min_cycle;Max_cycle;Signal;HPM_P1;HPM_P2
2022/10/04 00:02:33;;;;;;;7.28;6.78;;;;;;;;;;4981225;28;20117;-72
2022/10/04 00:05:06;;;;;;;6.70;6.20;;;;;;;;;;4983915;28;20034;-72
2022/10/04 00:07:39;;;;;;;7.40;6.80;;;;;;;;;;4980072;28;20116;-72
2022/10/04 00:10:24;;;;;;;7.20;6.70;;;;;;;;;;4979250;28;20329;-73
2022/10/04 00:13:06;;;;;;;6.25;5.80;;;;;;;;;;4980732;28;20023;-72
2022/10/04 00:15:36;;;;;;;7.35;6.63;;;;;;;;;;4981073;28;20027;-72
2022/10/04 00:18:10;;;;;;;7.35;6.80;;;;;;;;;;4978313;28;20535;-73
2022/10/04 00:20:52;;;;;;;7.30;6.80;;;;;;;;;;4980721;28;20568;-72
2022/10/04 00:23:27;;;;;;;7.07;6.57;;;;;;;;;;4980916;28;20034;-72
2022/10/04 00:26:14;;;;;;;6.93;6.43;;;;;;;;;;4976948;28;20031;-73
2022/10/04 00:28:45;;;;;;;7.70;7.20;;;;;;;;;;4977625;28;20129;-72
2022/10/04 00:31:19;;;;;;;9.10;8.23;;;;;;;;;;4978956;28;20027;-72
2022/10/04 00:33:51;;;;;;;8.43;7.82;;;;;;;;;;4974838;28;20031;-72
2022/10/04 00:36:23;;;;;;;7.53;7.03;;;;;;;;;;4981522;28;20125;-72
2022/10/04 00:39:03;;;;;;;;;;;;;;;;;;4977581;28;20022;-72
2022/10/04 00:41:47;;;;;;;7.25;6.75;;;;;;;;;;4977110;28;19914;-72
2022/10/04 00:44:33;;;;;;;7.00;6.50;;;;;;;;;;4975962;28;20431;-72
2022/10/04 00:47:00;;;;;;;8.00;7.43;;;;;;;;;;4975947;28;20034;-71
2022/10/04 00:49:34;;;;;;;7.10;6.50;;;;;;;;;;4980301;28;20108;-71
2022/10/04 00:52:19;;;;;;;7.32;6.82;;;;;;;;;;4979637;28;20093;-71
2022/10/04 00:54:52;;;;;;;8.68;7.97;;;;;;;;;;4996198;28;20045;-71
2022/10/04 00:57:36;;;;;;;6.72;6.20;;;;;;;;;;4981987;28;20037;-71
2022/10/04 01:00:10;;;;;;;7.80;7.07;;;;;;;;;;4984116;28;20584;-71
2022/10/04 01:02:56;;;;;;;8.38;7.78;;;;;;;;;;4977869;28;20046;-71
2022/10/04 01:05:36;;;;;;;7.28;6.78;;;;;;;;;;4978407;28;20364;-72
2022/10/04 01:08:08;;;;;;;8.05;7.45;;;;;;;;;;4976207;28;20027;-71
2022/10/04 01:10:46;;;;;;;7.35;6.85;;;;;;;;;;4978617;28;20069;-71
2022/10/04 01:13:22;;;;;;;8.38;7.78;;;;;;;;;;4983638;28;20204;-71
2022/10/04 01:16:01;;;;;;;7.65;7.10;;;;;;;;;;4978492;28;20517;-71
2022/10/04 01:18:30;;;;;;;7.55;7.05;;;;;;;;;;4991877;28;20038;-71
2022/10/04 01:21:01;;;;;;;7.80;7.30;;;;;;;;;;4980380;28;20441;-71
2022/10/04 01:23:34;;;;;;;;;;;;;;;;;;4983525;28;20026;-71
2022/10/04 01:26:01;;;;;;;8.30;7.50;;;;;;;;;;4978851;28;20005;-72
2022/10/04 01:28:27;;;;;;;7.60;7.10;;;;;;;;;;4978736;28;20053;-72
2022/10/04 01:30:53;;;;;;;7.30;6.80;;;;;;;;;;4979939;28;20035;-71
2022/10/04 01:33:18;;;;;;;7.97;7.47;;;;;;;;;;4976255;28;20027;-70
2022/10/04 01:35:44;;;;;;;7.78;7.18;;;;;;;;;;4978073;28;20037;-71
2022/10/04 01:38:11;;;;;;;7.63;7.03;;;;;;;;;;4977797;28;20035;-71
2022/10/04 01:40:47;;;;;;;21.58;7.90;;;;;;;;;;4977996;28;20496;-72
2022/10/04 01:43:20;;;;;;;8.35;7.75;;;;;;;;;;4983224;28;20034;-72
2022/10/04 01:45:50;;;;;;;8.35;7.47;;;;;;;;;;4977073;28;20042;-70
2022/10/04 01:48:22;;;;;;;7.43;6.93;;;;;;;;;;4978374;28;20113;-71
2022/10/04 01:50:55;;;;;;;7.38;6.88;;;;;;;;;;4978791;28;20072;-71
2022/10/04 01:53:40;;;;;;;7.13;6.63;;;;;;;;;;4964007;28;20034;-71
2022/10/04 01:56:16;;;;;;;8.45;7.75;;;;;;;;;;4974641;28;20212;-74
2022/10/04 01:58:49;;;;;;;7.43;6.93;;;;;;;;;;4975715;28;20038;-73
2022/10/04 02:01:22;;;;;;;7.22;6.63;;;;;;;;;;4977665;28;20100;-72
2022/10/04 02:03:57;;;;;;;7.50;6.97;;;;;;;;;;4982224;28;20062;-70
2022/10/04 02:06:24;;;;;;;7.82;7.30;;;;;;;;;;4977242;28;20035;-71
2022/10/04 02:08:56;;;;;;;7.22;6.72;;;;;;;;;;4974402;28;20050;-73
2022/10/04 02:11:23;;;;;;;7.07;6.57;;;;;;;;;;4980346;28;20030;-70
2022/10/04 02:13:51;;;;;;;6.72;6.22;;;;;;;;;;4979208;28;20026;-70
2022/10/04 02:16:19;;;;;;;7.32;6.82;;;;;;;;;;4976269;28;20055;-71
2022/10/04 02:18:45;;;;;;;7.65;7.05;;;;;;;;;;4978112;28;20642;-72
2022/10/04 02:21:12;;;;;;;6.35;5.95;;;;;;;;;;4980768;28;20155;-71
2022/10/04 02:23:39;;;;;;;7.63;7.03;;;;;;;;;;4980513;28;20519;-71
2022/10/04 02:26:07;;;;;;;7.32;6.82;;;;;;;;;;4976621;28;20468;-71
2022/10/04 02:28:33;;;;;;;7.68;7.07;;;;;;;;;;4979451;28;20479;-71
2022/10/04 02:33:46;;;;;;;6.88;6.38;;;;;;;;;;4974874;28;20034;-72
2022/10/04 02:36:12;;;;;;;8.02;7.30;;;;;;;;;;4976716;28;20335;-72
2022/10/04 02:38:47;;;;;;;8.32;7.72;;;;;;;;;;4977844;28;20031;-71
2022/10/04 02:41:25;;;;;;;7.07;6.57;;;;;;;;;;4977434;28;20117;-71
2022/10/04 02:44:03;;;;;;;6.90;6.40;;;;;;;;;;4974759;28;20058;-71
2022/10/04 02:47:11;;;;;;;7.45;6.95;;;;;;;;;;4977120;28;20033;-72
2022/10/04 02:49:52;;;;;;;7.53;7.03;;;;;;;;;;4972402;28;20661;-72
2022/10/04 02:52:30;;;;;;;6.82;6.30;;;;;;;;;;4978420;28;20046;-71
2022/10/04 02:55:01;;;;;;;7.43;6.82;;;;;;;;;;4975714;28;20457;-71
2022/10/04 02:57:29;;;;;;;6.90;6.40;;;;;;;;;;4978412;28;20081;-71
2022/10/04 03:00:26;;;;;;;7.22;6.72;;;;;;;;;;4973255;28;20053;-71
2022/10/04 03:03:10;;;;;;;7.25;6.75;;;;;;;;;;4977151;28;20042;-71
2022/10/04 03:05:37;;;;;;;7.65;7.15;;;;;;;;;;4977560;28;20058;-71
2022/10/04 03:08:04;;;;;;;6.18;5.75;;;;;;;;;;4976810;28;20563;-72
2022/10/04 03:10:30;;;;;;;7.97;7.45;;;;;;;;;;4977872;28;20038;-71
2022/10/04 03:12:55;;;;;;;7.00;6.50;;;;;;;;;;4980456;28;20476;-71
2022/10/04 03:15:21;;;;;;;7.20;6.70;;;;;;;;;;4976936;28;20611;-71
2022/10/04 03:17:46;;;;;;;7.35;6.78;;;;;;;;;;4977177;28;20042;-71
2022/10/04 03:20:15;;;;;;;7.15;6.65;;;;;;;;;;4977969;28;20034;-72
2022/10/04 03:22:43;;;;;;;7.55;7.05;;;;;;;;;;4971211;28;20062;-71
2022/10/04 03:25:17;;;;;;;7.40;6.90;;;;;;;;;;4976023;28;20073;-72
2022/10/04 03:27:43;;;;;;;7.85;7.25;;;;;;;;;;4975441;28;20058;-72
2022/10/04 03:30:13;;;;;;;7.93;7.43;;;;;;;;;;4973211;28;20038;-72
2022/10/04 03:32:39;;;;;;;7.53;6.97;;;;;;;;;;4976446;28;20572;-72
2022/10/04 03:35:07;;;;;;;8.27;7.68;;;;;;;;;;4975432;28;20138;-72
2022/10/04 03:37:36;;;;;;;9.13;8.43;;;;;;;;;;4977044;28;20108;-72
2022/10/04 03:40:03;;;;;;;7.20;6.70;;;;;;;;;;4975692;28;20034;-72
2022/10/04 03:42:33;;;;;;;7.93;7.32;;;;;;;;;;4979203;28;20105;-71
2022/10/04 03:45:06;;;;;;;7.78;7.18;;;;;;;;;;4974943;28;20031;-71
2022/10/04 03:47:36;;;;;;;9.82;9.07;;;;;;;;;;4983785;28;20038;-71
2022/10/04 03:50:11;;;;;;;8.30;7.60;;;;;;;;;;4975059;28;20034;-72
2022/10/04 03:52:39;;;;;;;7.75;7.15;;;;;;;;;;4976849;28;20034;-71
2022/10/04 03:55:06;;;;;;;8.15;7.47;;;;;;;;;;4976684;28;20066;-71
2022/10/04 03:57:33;;;;;;;7.60;7.10;;;;;;;;;;4978826;28;20030;-71
2022/10/04 04:00:00;;;;;;;8.65;8.05;;;;;;;;;;4975324;28;20148;-71
2022/10/04 04:02:37;;;;;;;8.07;7.47;;;;;;;;;;4978084;28;20041;-71
2022/10/04 04:05:20;;;;;;;8.30;7.75;;;;;;;;;;4976459;28;20041;-72
2022/10/04 04:08:02;;;;;;;8.00;7.25;;;;;;;;;;4978208;28;20333;-73
2022/10/04 04:10:33;;;;;;;7.63;7.13;;;;;;;;;;4980515;28;20447;-71
2022/10/04 04:13:24;;;;;;;8.60;8.00;;;;;;;;;;4981234;28;20112;-71
2022/10/04 04:15:50;;;;;;;6.90;6.40;;;;;;;;;;4980088;28;20062;-71
2022/10/04 04:18:23;;;;;;;8.52;7.70;;;;;;;;;;4979453;28;20113;-72
2022/10/04 04:20:52;;;;;;;7.72;7.15;;;;;;;;;;4980339;28;20140;-72
2022/10/04 04:23:25;;;;;;;8.65;7.95;;;;;;;;;;4978241;28;20062;-72
2022/10/04 04:25:55;;;;;;;8.15;7.55;;;;;;;;;;4978395;28;20439;-71
2022/10/04 04:28:32;;;;;;;7.55;7.05;;;;;;;;;;4982280;28;20026;-71
2022/10/04 04:31:25;;;;;;;8.10;7.55;;;;;;;;;;4980289;28;20113;-71
2022/10/04 04:33:59;;;;;;;8.43;7.82;;;;;;;;;;4977082;28;20050;-71
2022/10/04 04:36:27;;;;;;;7.65;7.05;;;;;;;;;;4981527;28;20047;-71
2022/10/04 04:41:36;;;;;;;7.85;7.25;;;;;;;;;;4977902;28;20038;-71
2022/10/04 04:44:02;;;;;;;7.95;7.45;;;;;;;;;;4979746;28;20034;-71
2022/10/04 04:46:29;;;;;;;8.38;7.78;;;;;;;;;;4978749;28;20081;-71
2022/10/04 04:49:03;;;;;;;7.88;7.35;;;;;;;;;;4978266;28;20034;-71
2022/10/04 04:51:31;;;;;;;7.60;7.10;;;;;;;;;;4981120;28;20026;-71
2022/10/04 04:54:00;;;;;;;8.32;7.72;;;;;;;;;;4977541;28;20394;-70
2022/10/04 04:56:27;;;;;;;7.70;7.20;;;;;;;;;;4978714;28;20034;-71
2022/10/04 04:58:55;;;;;;;7.65;7.13;;;;;;;;;;4979744;28;20054;-71
2022/10/04 05:01:24;;;;;;;8.50;7.90;;;;;;;;;;4979521;28;20111;-71
2022/10/04 05:04:20;;;;;;;7.47;6.97;;;;;;;;;;4996625;28;20035;-70
2022/10/04 05:06:59;;;;;;;8.85;7.95;;;;;;;;;;4971348;28;20522;-70
2022/10/04 05:09:34;;;;;;;7.22;6.72;;;;;;;;;;4982036;28;20034;-71
2022/10/04 05:12:09;;;;;;;8.23;7.63;;;;;;;;;;4978834;28;20369;-70
2022/10/04 05:14:38;;;;;;;7.43;6.93;;;;;;;;;;4980028;28;20075;-70
2022/10/04 05:17:04;;;;;;;7.47;6.97;;;;;;;;;;4977411;28;20113;-70
2022/10/04 05:19:34;;;;;;;7.45;6.95;;;;;;;;;;4979650;28;20480;-70
2022/10/04 05:22:09;;;;;;;13.35;10.93;;;;;;;;;;4982119;28;20739;-70
2022/10/04 05:24:39;;;;;;;7.90;7.35;;;;;;;;;;4979954;28;20023;-70
2022/10/04 05:27:12;;;;;;;8.05;7.45;;;;;;;;;;4994806;28;20415;-70
2022/10/04 05:29:44;;;;;;;7.75;7.18;;;;;;;;;;4980674;28;20369;-72
2022/10/04 05:32:36;;;;;;;8.38;7.78;;;;;;;;;;4979037;28;20108;-71
2022/10/04 05:35:01;;;;;;;;;;;;;;;;;;4980897;28;20057;-70
2022/10/04 05:38:01;;;;;;;7.38;6.85;;;;;;;;;;4978843;28;19910;-71
2022/10/04 05:40:31;;;;;;;7.90;7.38;;;;;;;;;;4975889;28;20041;-70
2022/10/04 05:42:58;;;;;;;7.97;7.38;;;;;;;;;;4978526;28;20038;-70
2022/10/04 05:45:26;;;;;;;7.15;6.65;;;;;;;;;;4979440;28;20026;-72
2022/10/04 05:47:54;;;;;;;7.78;7.28;;;;;;;;;;4976704;28;20038;-73
2022/10/04 05:50:27;;;;;;;7.50;7.00;;;;;;;;;;4980254;28;20421;-71
2022/10/04 05:53:14;;;;;;;8.25;7.65;;;;;;;;;;4977253;28;20110;-73
2022/10/04 05:56:10;;;;;;;9.55;8.75;;;;;;;;;;4979500;28;20035;-70
2022/10/04 05:58:51;;;;;;;7.78;7.28;;;;;;;;;;4981394;28;20034;-74
2022/10/04 06:01:39;;;;;;;7.70;7.18;;;;;;;;;;4975730;28;20534;-70
2022/10/04 06:04:24;;;;;;;8.60;7.97;;;;;;;;;;4976627;28;20031;-71
2022/10/04 06:07:01;;;;;;;8.60;8.00;;;;;;;;;;4991958;28;20054;-74
2022/10/04 06:09:54;;;;;;;8.07;7.47;;;;;;;;;;4977243;28;20029;-73
2022/10/04 06:12:54;;;;;;;7.40;6.90;;;;;;;;;;4975376;28;20026;-72
2022/10/04 06:15:22;;;;;;;8.13;7.53;;;;;;;;;;4989919;28;20034;-70
2022/10/04 06:18:06;;;;;;;7.63;7.13;;;;;;;;;;4983301;28;20622;-71
2022/10/04 06:20:56;;;;;;;8.20;7.65;;;;;;;;;;4978622;28;20310;-69
2022/10/04 06:23:25;;;;;;;8.68;7.97;;;;;;;;;;4972271;28;20039;-71
2022/10/04 06:25:55;;;;;;;9.52;8.93;;;;;;;;;;4973614;28;20427;-70
2022/10/04 06:28:30;;;;;;;9.67;8.97;;;;;;;;;;4975759;28;20038;-73
2022/10/04 06:31:10;;;;;;;8.73;8.13;;;;;;;;;;4977079;28;20285;-70
2022/10/04 06:34:06;;;;;;;9.05;8.45;;;;;;;;;;4977943;28;20522;-71
2022/10/04 06:37:08;;;;;;;8.43;7.93;;;;;;;;;;4973167;28;20041;-69
2022/10/04 06:40:03;;;;;;;9.15;8.55;;;;;;;;;;4979650;28;20057;-70
2022/10/04 06:42:41;;;;;;;7.68;7.15;;;;;;;;;;4976144;28;20553;-72
2022/10/04 06:45:20;;;;;;;7.88;7.38;;;;;;;;;;4977946;28;20042;-70
2022/10/04 06:48:10;;;;;;;7.80;7.30;;;;;;;;;;4976862;28;20030;-71
2022/10/04 06:50:47;;;;;;;7.75;7.25;;;;;;;;;;4977004;28;20121;-70
2022/10/04 06:53:23;;;;;;;7.68;7.18;;;;;;;;;;4976155;28;20509;-73
2022/10/04 06:55:54;;;;;;;7.35;6.85;;;;;;;;;;4976013;28;20465;-70
2022/10/04 06:58:32;;;;;;;;;;;;;;;;;;4974307;28;20033;-72
2022/10/04 07:01:09;;;;;;;6.88;6.38;;;;;;;;;;4976101;28;19917;-72
2022/10/04 07:03:46;;;;;;;7.30;6.80;;;;;;;;;;4973593;28;20062;-69
2022/10/04 07:06:12;;;;;;;6.88;6.38;;;;;;;;;;4977245;28;20045;-69
2022/10/04 07:08:46;;;;;;;7.40;6.90;;;;;;;;;;4979852;28;20027;-69
2022/10/04 07:11:31;;;;;;;8.18;7.30;;;;;;;;;;4978887;28;20078;-69
2022/10/04 07:14:02;;;;;;;7.18;6.68;;;;;;;;;;4977680;28;20034;-64
2022/10/04 07:16:27;;;;;;;;;;;;;;;;;;4978461;28;20037;-64
2022/10/04 07:19:16;;;;;;;6.90;6.40;;;;;;;;;;4978202;28;19913;-59
2022/10/04 07:22:02;;;;;;;6.70;6.20;;;;;;;;;;4991259;28;20038;-59
2022/10/04 07:24:51;;;;;;;6.93;6.43;;;;;;;;;;4958228;28;20376;-59
2022/10/04 07:27:27;;;;;;;6.50;6.10;;;;;;;;;;4991301;28;20022;-59
2022/10/04 07:29:59;;;;;;;6.38;5.88;;;;;;;;;;4975997;28;20034;-61
2022/10/04 07:32:30;;;;;;;6.65;6.15;;;;;;;;;;4978015;28;20362;-61
2022/10/04 07:35:32;;;;;;;6.65;6.15;;;;;;;;;;4978448;28;20034;-61
2022/10/04 07:38:14;;;;;;;7.05;6.45;;;;;;;;;;4976471;28;20137;-61
2022/10/04 07:41:08;;;;;;;6.93;6.43;;;;;;;;;;4979603;28;20034;-61
2022/10/04 07:43:41;;;;;;;6.32;5.82;;;;;;;;;;4980898;28;20058;-61
2022/10/04 07:46:21;;;;;;;6.65;6.18;;;;;;;;;;4976525;28;20121;-61
2022/10/04 07:48:48;;;;;;;6.93;6.43;;;;;;;;;;4981775;28;20181;-61
2022/10/04 07:51:26;;;;;;;7.32;6.82;;;;;;;;;;4983900;28;20076;-61
2022/10/04 07:54:09;;;;;;;8.38;7.78;;;;;;;;;;4977076;28;20033;-61
2022/10/04 07:56:56;;;;;;;7.75;7.25;;;;;;;;;;4977492;28;20061;-61
2022/10/04 07:59:24;;;;;;;7.60;7.05;;;;;;;;;;4978416;28;20086;-61
2022/10/04 08:02:18;;;;;;;8.65;8.05;;;;;;;;;;4991055;28;20038;-61
2022/10/04 08:04:55;;;;;;;9.45;8.63;;;;;;;;;;4978719;28;20039;-61
2022/10/04 08:07:28;;;;;;;7.43;6.93;;;;;;;;;;4979892;28;20132;-61
2022/10/04 08:10:12;;;;;;;9.32;8.73;;;;;;;;;;4994239;28;20468;-60
2022/10/04 08:12:56;;;;;;;9.60;9.00;;;;;;;;;;4979586;28;20042;-61
2022/10/04 08:15:33;;;;;;;9.68;9.07;;;;;;;;;;4980289;28;20031;-61
2022/10/04 08:18:17;;;;;;;10.60;9.93;;;;;;;;;;4977865;28;20035;-61
2022/10/04 08:20:59;;;;;;;9.82;9.23;;;;;;;;;;4976701;28;20110;-60
2022/10/04 08:23:27;;;;;;;10.15;9.52;;;;;;;;;;4977243;28;20089;-60
2022/10/04 08:25:58;;;;;;;10.35;9.75;;;;;;;;;;4980393;28;20618;-60
2022/10/04 08:31:39;;;;;;;9.52;8.93;;;;;;;;;;4979154;28;19917;-60
2022/10/04 08:34:42;;;;;;;9.25;8.65;;;;;;;;;;4978688;28;20038;-60
2022/10/04 08:37:27;;;;;;;10.50;9.80;;;;;;;;;;4976920;28;20043;-61
2022/10/04 08:40:22;;;;;;;11.30;10.60;;;;;;;;;;4973857;28;20049;-61
2022/10/04 08:43:07;;;;;;;9.95;9.35;;;;;;;;;;4976581;28;20050;-59
2022/10/04 08:45:53;;;;;;;11.05;10.35;;;;;;;;;;4977917;28;20536;-61
2022/10/04 08:48:47;;;;;;;11.30;10.60;;;;;;;;;;4991649;28;20056;-60
2022/10/04 08:51:37;;;;;;;11.77;11.07;;;;;;;;;;4977171;28;20042;-59
2022/10/04 08:54:40;;;;;;;10.93;10.23;;;;;;;;;;4975264;28;20022;-60
2022/10/04 08:57:18;;;;;;;12.70;11.90;;;;;;;;;;4975890;28;20039;-60
2022/10/04 09:00:12;;;;;;;11.43;10.60;;;;;;;;;;4977679;28;20038;-62
2022/10/04 09:03:16;;;;;;;10.77;10.07;;;;;;;;;;4973012;28;20376;-61
2022/10/04 09:06:09;;;;;;;11.90;11.20;;;;;;;;;;4976736;28;20062;-61
2022/10/04 09:09:03;;;;;;;13.88;13.07;;;;;;;;;;4978544;28;20373;-61
2022/10/04 09:11:46;;;;;;;9.98;9.27;;;;;;;;;;4978895;28;20038;-61
2022/10/04 09:14:39;;;;;;;11.40;10.70;;;;;;;;;;4976432;28;20723;-61
2022/10/04 09:17:21;;;;;;;10.55;9.95;;;;;;;;;;4977543;28;20488;-61
2022/10/04 09:20:00;;;;;;;11.80;11.10;;;;;;;;;;4978773;28;20031;-61
2022/10/04 09:22:39;;;;;;;9.05;8.45;;;;;;;;;;4974918;28;20038;-61
2022/10/04 09:25:31;;;;;;;11.00;10.32;;;;;;;;;;4977987;28;20046;-61
2022/10/04 09:28:19;;;;;;;9.23;8.63;;;;;;;;;;4976853;28;20038;-61
2022/10/04 09:31:09;;;;;;;7.38;6.88;;;;;;;;;;4979234;28;20456;-61
2022/10/04 09:34:01;;;;;;;6.82;6.32;;;;;;;;;;4979618;28;20062;-62
2022/10/04 09:37:05;;;;;;;6.72;6.22;;;;;;;;;;4979402;28;20022;-62
2022/10/04 09:40:09;;;;;;;7.50;7.00;;;;;;;;;;4979694;28;20045;-62
2022/10/04 09:43:06;;;;;;;6.97;6.47;;;;;;;;;;4973314;28;20038;-62
2022/10/04 09:46:06;;;;;;;7.10;6.57;;;;;;;;;;4979146;28;20037;-61
2022/10/04 09:48:44;;;;;;;7.35;6.85;;;;;;;;;;4977687;28;20030;-61
2022/10/04 09:51:23;;;;;;;12.50;7.07;;;;;;;;;;4978221;28;20035;-62
2022/10/04 09:54:20;;;;;;;7.72;7.13;;;;;;;;;;4976512;28;20026;-62
2022/10/04 09:57:11;;;;;;;7.20;6.70;;;;;;;;;;4976574;28;20038;-62
2022/10/04 10:00:01;;;;;;;7.43;6.93;;;;;;;;;;4978618;28;20034;-62
2022/10/04 10:02:39;;;;;;;9.30;8.57;;;;;;;;;;4980283;28;20387;-62
2022/10/04 10:05:21;;;;;;;7.57;7.03;;;;;;;;;;4978179;28;20460;-63
2022/10/04 10:08:09;;;;;;;7.75;7.15;;;;;;;;;;4977763;28;20128;-62
2022/10/04 10:13:49;;;;;;;6.43;5.97;;;;;;;;;;4975928;28;20034;-63
2022/10/04 10:16:52;;;;;;;7.53;7.03;;;;;;;;;;4979342;28;20266;-62
2022/10/04 10:19:51;;;;;;;7.03;6.53;;;;;;;;;;4976441;28;20049;-62
2022/10/04 10:22:54;;;;;;;6.63;6.13;;;;;;;;;;4962933;28;20046;-63
2022/10/04 10:25:39;;;;;;;7.15;6.65;;;;;;;;;;4974449;28;20041;-62
2022/10/04 10:28:41;;;;;;;6.72;6.22;;;;;;;;;;4977463;28;20108;-62
2022/10/04 10:31:18;;;;;;;8.65;7.80;;;;;;;;;;4973664;28;20042;-62
2022/10/04 10:34:18;;;;;;;8.20;7.70;;;;;;;;;;4989386;28;20034;-62
2022/10/04 10:36:49;;;;;;;7.47;6.97;;;;;;;;;;4975396;28;20077;-62
2022/10/04 10:39:41;;;;;;;8.80;8.23;;;;;;;;;;4975859;28;20437;-62
2022/10/04 10:42:26;;;;;;;10.43;9.73;;;;;;;;;;4975971;28;20109;-62
2022/10/04 10:45:03;;;;;;;11.07;10.38;;;;;;;;;;4976050;28;20496;-62
2022/10/04 10:47:35;;;;;;;9.73;8.75;;;;;;;;;;4976626;28;20074;-61
2022/10/04 10:50:18;;;;;;;11.57;10.77;;;;;;;;;;4979490;28;20302;-62
2022/10/04 10:53:22;;;;;;;11.05;10.35;;;;;;;;;;4975244;28;20030;-62
2022/10/04 10:56:15;;;;;;;8.88;8.27;;;;;;;;;;4976928;28;20045;-62
2022/10/04 10:59:10;;;;;;;10.43;9.82;;;;;;;;;;4979018;28;20295;-63
2022/10/04 11:02:03;;;;;;;9.80;9.20;;;;;;;;;;4976560;28;20113;-62
2022/10/04 11:04:34;;;;;;;10.35;9.75;;;;;;;;;;4983455;28;20535;-63
2022/10/04 11:07:23;;;;;;;11.05;10.20;;;;;;;;;;4974561;28;20457;-64
2022/10/04 11:10:10;;;;;;;10.18;9.48;;;;;;;;;;4976819;28;20045;-64
2022/10/04 11:13:02;;;;;;;11.13;10.43;;;;;;;;;;4975171;28;20387;-63
2022/10/04 11:15:50;;;;;;;11.02;10.32;;;;;;;;;;4983590;28;20037;-63
2022/10/04 11:18:44;;;;;;;12.68;11.88;;;;;;;;;;4975869;28;20030;-63
2022/10/04 11:21:15;;;;;;;11.45;10.75;;;;;;;;;;4979075;28;20093;-64
2022/10/04 11:24:13;;;;;;;12.68;11.80;;;;;;;;;;4978791;28;20457;-65
2022/10/04 11:27:01;;;;;;;10.63;10.00;;;;;;;;;;4980427;28;20030;-64
2022/10/04 11:29:29;;;;;;;11.70;11.00;;;;;;;;;;4975184;28;20088;-65
2022/10/04 11:32:01;;;;;;;12.23;11.50;;;;;;;;;;4979503;28;20374;-65
2022/10/04 11:34:26;;;;;;;12.90;12.10;;;;;;;;;;4981295;28;20172;-66
2022/10/04 11:37:03;;;;;;;12.38;11.68;;;;;;;;;;4978753;28;20432;-63
2022/10/04 11:39:48;;;;;;;13.80;12.98;;;;;;;;;;4980670;28;20034;-64
2022/10/04 11:42:54;;;;;;;12.80;12.00;;;;;;;;;;4979877;28;20139;-63
2022/10/04 11:45:41;;;;;;;13.43;12.63;;;;;;;;;;4979102;28;20417;-62
2022/10/04 11:48:31;;;;;;;12.70;11.93;;;;;;;;;;4977952;28;20047;-63
2022/10/04 11:51:03;;;;;;;13.05;12.25;;;;;;;;;;4979045;28;20122;-61
2022/10/04 11:53:51;;;;;;;11.48;10.77;;;;;;;;;;4976630;28;20029;-62
2022/10/04 11:56:20;;;;;;;11.73;11.02;;;;;;;;;;4979487;28;20039;-63
2022/10/04 11:58:56;;;;;;;13.65;12.85;;;;;;;;;;4980015;28;20637;-63
2022/10/04 12:01:44;;;;;;;11.90;11.20;;;;;;;;;;4981280;28;20306;-63
2022/10/04 12:04:40;;;;;;;13.05;12.25;;;;;;;;;;4979720;28;20412;-63
2022/10/04 12:07:28;;;;;;;11.75;11.00;;;;;;;;;;4977663;28;20035;-63
2022/10/04 12:09:54;;;;;;;11.75;11.05;;;;;;;;;;4979015;28;20392;-63
2022/10/04 12:12:37;;;;;;;11.18;10.48;;;;;;;;;;4977266;28;20044;-62
2022/10/04 12:15:12;;;;;;;13.50;12.70;;;;;;;;;;4982910;28;20122;-63
2022/10/04 12:17:46;;;;;;;13.45;12.63;;;;;;;;;;4981260;28;20034;-63
2022/10/04 12:20:38;;;;;;;10.65;9.95;;;;;;;;;;4979491;28;20026;-63
2022/10/04 12:23:04;;;;;;;11.40;10.60;;;;;;;;;;4965785;28;20501;-63
2022/10/04 12:25:43;;;;;;;12.88;12.07;;;;;;;;;;4976624;28;20492;-64
2022/10/04 12:28:34;;;;;;;10.50;9.88;;;;;;;;;;4980272;28;20427;-64
2022/10/04 12:31:46;;;;;;;11.05;10.35;;;;;;;;;;4977636;28;20050;-63
2022/10/04 12:34:37;;;;;;;9.93;9.32;;;;;;;;;;4971798;28;20620;-63
2022/10/04 12:37:14;;;;;;;10.43;9.73;;;;;;;;;;4970501;28;20054;-63
2022/10/04 12:40:04;;;;;;;10.65;10.00;;;;;;;;;;4976603;28;20054;-63
2022/10/04 12:42:58;;;;;;;9.73;9.13;;;;;;;;;;4978574;28;20052;-63
2022/10/04 12:45:55;;;;;;;10.57;9.90;;;;;;;;;;4981223;28;20031;-63
2022/10/04 12:48:25;;;;;;;10.95;10.25;;;;;;;;;;4977773;28;20123;-63
2022/10/04 12:50:58;;;;;;;10.20;9.50;;;;;;;;;;4979998;28;20030;-63
2022/10/04 12:53:51;;;;;;;12.80;12.00;;;;;;;;;;4977164;28;20035;-64
2022/10/04 12:56:36;;;;;;;11.40;10.60;;;;;;;;;;4980197;28;20031;-65
2022/10/04 12:59:24;;;;;;;10.98;10.27;;;;;;;;;;4981781;28;20125;-64
2022/10/04 13:02:20;;;;;;;13.27;12.48;;;;;;;;;;4994342;28;20113;-64
2022/10/04 13:05:28;;;;;;;10.75;10.05;;;;;;;;;;4981542;28;20876;-63
2022/10/04 13:08:06;;;;;;;11.48;10.77;;;;;;;;;;4935205;28;20061;-64
2022/10/04 13:11:04;;;;;;;9.98;9.38;;;;;;;;;;4977925;28;20039;-63
2022/10/04 13:13:40;;;;;;;10.13;9.43;;;;;;;;;;4977233;28;20101;-64
2022/10/04 13:16:11;;;;;;;11.45;10.75;;;;;;;;;;4978193;28;20345;-61
2022/10/04 13:19:22;;;;;;;11.18;10.48;;;;;;;;;;4981181;28;20045;-62
2022/10/04 13:22:15;;;;;;;10.90;10.23;;;;;;;;;;4973193;28;20034;-64
2022/10/04 13:25:17;;;;;;;9.50;8.90;;;;;;;;;;4972165;28;20042;-63
2022/10/04 13:27:51;;;;;;;9.27;8.68;;;;;;;;;;4974671;28;20038;-64
2022/10/04 13:30:23;;;;;;;15.43;14.43;;;;;;;;;;4976133;28;20477;-64
2022/10/04 13:33:00;;;;;;;10.70;10.00;;;;;;;;;;4979426;28;20035;-64
2022/10/04 13:35:39;;;;;;;10.23;9.57;;;;;;;;;;4980377;28;20120;-64
2022/10/04 13:38:35;;;;;;;10.65;9.95;;;;;;;;;;4977578;28;20110;-65
2022/10/04 13:41:06;;;;;;;8.95;8.35;;;;;;;;;;4977920;28;20039;-64
2022/10/04 13:44:10;;;;;;;11.80;11.07;;;;;;;;;;4975372;28;20191;-64
2022/10/04 13:47:16;;;;;;;12.05;11.32;;;;;;;;;;4985740;28;20030;-64
2022/10/04 13:50:00;;;;;;;10.50;9.80;;;;;;;;;;4994022;28;20035;-64
2022/10/04 13:58:46;;;;;;;11.00;10.30;;;;;;;;;;4979831;28;20045;-65
2022/10/04 14:01:49;;;;;;;10.10;9.50;;;;;;;;;;4978126;28;20049;-65
2022/10/04 14:04:36;;;;;;;11.85;11.13;;;;;;;;;;4977089;28;20099;-64
2022/10/04 14:07:19;;;;;;;10.10;9.50;;;;;;;;;;4973376;28;20054;-65
2022/10/04 14:10:34;;;;;;;11.02;10.32;;;;;;;;;;4994356;28;20026;-65
2022/10/04 14:13:08;;;;;;;12.13;11.23;;;;;;;;;;4984846;28;20053;-66
2022/10/04 14:15:46;;;;;;;11.73;11.02;;;;;;;;;;4975517;28;20056;-66
2022/10/04 14:18:26;;;;;;;10.77;10.05;;;;;;;;;;4976205;28;20113;-65
2022/10/04 14:21:39;;;;;;;10.00;9.40;;;;;;;;;;4993091;28;20073;-66
2022/10/04 14:24:11;;;;;;;14.95;13.98;;;;;;;;;;4974248;28;20071;-65
2022/10/04 14:27:07;;;;;;;12.55;11.75;;;;;;;;;;4984254;28;20045;-66
2022/10/04 14:29:59;;;;;;;12.52;11.65;;;;;;;;;;4978803;28;20069;-66
2022/10/04 14:32:44;;;;;;;11.60;10.70;;;;;;;;;;4980875;28;20034;-65
2022/10/04 14:35:22;;;;;;;10.40;9.70;;;;;;;;;;4977512;28;20043;-65
2022/10/04 14:38:09;;;;;;;10.35;9.70;;;;;;;;;;4993733;28;20049;-64
2022/10/04 14:40:52;;;;;;;9.57;8.98;;;;;;;;;;4975754;28;20118;-65
2022/10/04 14:43:51;;;;;;;9.05;8.45;;;;;;;;;;4978740;28;20030;-65
2022/10/04 14:46:16;;;;;;;9.23;8.63;;;;;;;;;;4981164;28;20034;-66
2022/10/04 14:49:04;;;;;;;10.20;9.40;;;;;;;;;;4977055;28;20556;-65
2022/10/04 14:51:53;;;;;;;10.05;9.25;;;;;;;;;;4976396;28;20050;-65
2022/10/04 14:54:21;;;;;;;9.88;9.27;;;;;;;;;;4974347;28;20022;-64
2022/10/04 14:56:57;;;;;;;9.85;9.25;;;;;;;;;;4972880;28;20035;-64
2022/10/04 14:59:38;;;;;;;10.30;9.70;;;;;;;;;;4976449;28;20104;-67
2022/10/04 15:02:21;;;;;;;9.43;8.80;;;;;;;;;;4975473;28;20141;-65
2022/10/04 15:05:31;;;;;;;11.98;11.18;;;;;;;;;;4981573;28;20034;-65
2022/10/04 15:08:23;;;;;;;10.35;9.68;;;;;;;;;;4958932;28;20051;-66
2022/10/04 15:10:56;;;;;;;10.32;9.73;;;;;;;;;;4977427;28;20038;-65
2022/10/04 15:13:21;;;;;;;12.63;11.80;;;;;;;;;;4978425;28;20023;-67
2022/10/04 15:16:08;;;;;;;13.63;12.82;;;;;;;;;;4972940;28;20044;-68
2022/10/04 15:18:55;;;;;;;15.18;14.27;;;;;;;;;;4975806;28;20037;-66
2022/10/04 15:21:29;;;;;;;17.15;16.20;;;;;;;;;;4976435;28;20039;-64
2022/10/04 15:24:10;;;;;;;16.15;14.85;;;;;;;;;;4974312;28;20436;-65
2022/10/04 15:27:03;;;;;;;19.95;18.77;;;;;;;;;;4976607;28;20042;-65
2022/10/04 15:29:37;;;;;;;18.60;17.50;;;;;;;;;;4979655;28;20035;-65
2022/10/04 15:32:23;;;;;;;20.92;19.73;;;;;;;;;;4978104;28;20120;-65
2022/10/04 15:35:17;;;;;;;16.45;15.52;;;;;;;;;;4975104;28;20117;-65
2022/10/04 15:37:55;;;;;;;17.05;16.00;;;;;;;;;;4979870;28;20034;-65
2022/10/04 15:40:38;;;;;;;16.67;15.75;;;;;;;;;;4980887;28;20034;-65
2022/10/04 15:43:14;;;;;;;24.30;22.98;;;;;;;;;;4975147;28;20042;-65
2022/10/04 15:45:46;;;;;;;22.10;20.90;;;;;;;;;;4978664;28;20034;-65
2022/10/04 15:48:35;;;;;;;17.85;16.85;;;;;;;;;;4978079;28;20056;-64
2022/10/04 15:51:23;;;;;;;18.13;17.13;;;;;;;;;;4976374;28;20043;-64
2022/10/04 15:54:06;;;;;;;18.95;17.85;;;;;;;;;;4979836;28;20061;-64
2022/10/04 15:56:47;;;;;;;17.00;15.93;;;;;;;;;;4977549;28;20042;-64
2022/10/04 15:59:25;;;;;;;20.33;19.23;;;;;;;;;;4978110;28;20046;-66
2022/10/04 16:01:53;;;;;;;25.33;23.92;;;;;;;;;;4979789;28;20117;-65
2022/10/04 16:04:56;;;;;;;28.70;27.17;;;;;;;;;;4979736;28;20033;-66
2022/10/04 16:07:57;;;;;;;27.85;26.38;;;;;;;;;;4979133;28;20034;-65
2022/10/04 16:10:29;;;;;;;25.65;24.30;;;;;;;;;;4980598;28;20057;-65
2022/10/04 16:13:15;;;;;;;27.48;26.02;;;;;;;;;;4981619;28;20479;-65